Meteo Giornale » Osservazioni meteo Spagna » Sabadell
ore: 20:30 - Osservazioni Meteo Sabadell
Lat. 41° 31' N Lon. 2° 6' E Alt. 250 metri s.l.m.
26 °C
Molto Nuvoloso
Temp. 24 Ore
18 °C
30 °C
Sud/Sud-Est
11.1 Km/h
Dew point 18 °C
Umidità 61 %
Visibilità 10 Km
Il sole sorge alle ore 07:16
Il sole tramonta alle ore 20:27
| Data e Ora | Cielo e Fenomeni | T °C | DP °C | Um. % | Pres. hPa | Vis. km | Vento km/h | |
|---|---|---|---|---|---|---|---|---|
| Oggi h: 20:30 | Molto Nuvoloso | 26 | 18 | 61 | 1019 | 10 | S/SE 11.1 | |
| Oggi h: 20:00 | Nuvoloso | 27 | 18 | 57 | 1019 | 10 | SE 13 | |
| Oggi h: 19:30 | Nuvoloso | 27 | 18 | 57 | 1018 | 10 | S/SE 13 | |
| Oggi h: 19:00 | Molto Nuvoloso | 27 | 19 | 61 | 1019 | 10 | S 14.8 | |
| Oggi h: 18:30 | Molto Nuvoloso | 28 | 19 | 58 | 1019 | 10 | S 14.8 | |
| Oggi h: 18:00 | Molto Nuvoloso | 29 | 20 | 58 | 1019 | 10 | S 14.8 | |
| Oggi h: 17:30 | Nuvoloso | 29 | 20 | 58 | 1019 | 10 | S/SE 18.5 | |
| Oggi h: 17:00 | Molto Nuvoloso | 29 | 20 | 58 | 1019 | 10 | S 20.3 | |
| Oggi h: 16:30 | Molto Nuvoloso | 30 | 21 | 58 | 1019 | 10 | SE 20.3 | |
| Oggi h: 16:00 | Nuvoloso | 28 | 21 | 65 | 1019 | 10 | E/SE 24 | |
| Oggi h: 15:30 | Nuvoloso | 28 | 21 | 65 | 1019 | 10 | E/SE 24 | |
| Oggi h: 15:00 | Nuvoloso | 30 | 21 | 58 | 1019 | 10 | SE 22.2 | |
| Oggi h: 14:30 | Nuvoloso | 29 | 20 | 58 | 1019 | 10 | E/SE 18.5 | |
| Oggi h: 14:00 | Nuvoloso | 29 | 20 | 58 | 1019 | 10 | E/SE 16.7 | |
| Oggi h: 13:30 | Nuvoloso | 29 | 19 | 54 | 1019 | 10 | E/SE 13 | |
| Oggi h: 13:00 | Poco Nuvoloso | 29 | 19 | 54 | 1019 | 10 | E/SE 13 | |
| Oggi h: 12:30 | Poco Nuvoloso | 29 | 18 | 51 | 1019 | 10 | N 3.7 | |
| Oggi h: 12:00 | Poco Nuvoloso | 29 | 18 | 51 | 1019 | 10 | N 9.3 | |
| Oggi h: 11:30 | Poco Nuvoloso | 28 | 18 | 54 | 1020 | 10 | S/SO 11.1 | |
| Oggi h: 11:00 | Poco Nuvoloso | 28 | 18 | 54 | 1020 | 10 | N 5.5 | |
| Oggi h: 10:30 | Poco Nuvoloso | 27 | 17 | 54 | 1019 | 10 | N 1.8 | |
| Oggi h: 10:00 | Poco Nuvoloso | 26 | 17 | 57 | 1019 | 10 | N 0 | |
| Oggi h: 09:30 | Poco Nuvoloso | 24 | 13 | 50 | 1019 | 10 | N 0 | |
| Oggi h: 09:00 | Sereno | 23 | 12 | 49 | 1019 | 10 | N 0 | |
| Oggi h: 08:30 | Sereno | 21 | 11 | 52 | 1019 | 10 | N 0 | |
| Oggi h: 08:00 | Sereno | 18 | 12 | 67 | 1018 | 10 | N 5.5 | |
| Oggi h: 07:30 | Sereno | 18 | 12 | 67 | 1018 | 10 | N 3.7 | |
| Oggi h: 07:00 | Sereno | 18 | 11 | 63 | 1018 | 10 | N 3.7 | |
| Oggi h: 06:30 | Sereno | 18 | 13 | 72 | 1018 | 10 | O 7.4 | |
| Oggi h: 06:00 | Sereno | 18 | 13 | 72 | 1018 | 10 | O 9.3 | |
| Oggi h: 05:30 | Sereno | 18 | 14 | 77 | 1018 | 10 | N 5.5 | |
| Oggi h: 05:00 | Sereno | 19 | 14 | 72 | 1018 | 10 | N 3.7 | |
| Oggi h: 04:30 | Sereno | 19 | 15 | 77 | 1017 | 10 | O 7.4 | |
| Oggi h: 04:00 | Sereno | 19 | 16 | 82 | 1017 | 10 | N 1.8 | |
| Oggi h: 03:30 | Sereno | 21 | 16 | 73 | 1017 | 10 | N 0 | |
| Oggi h: 03:00 | Sereno | 21 | 15 | 68 | 1017 | 10 | N 5.5 | |
| Oggi h: 02:30 | Sereno | 21 | 16 | 73 | 1017 | 10 | N 1.8 | |
| Oggi h: 02:00 | Sereno | 22 | 18 | 78 | 1017 | 10 | N 3.7 | |
| Oggi h: 01:30 | Sereno | 22 | 17 | 73 | 1017 | 10 | N 3.7 | |
| Oggi h: 01:00 | Sereno | 23 | 16 | 64 | 1017 | 10 | N 5.5 | |
| Oggi h: 00:30 | Sereno | 23 | 15 | 60 | 1017 | 10 | O 9.3 | |
| Oggi h: 00:00 | Sereno | 23 | 15 | 60 | 1017 | 10 | O 9.3 | |
| Ieri h: 23:30 | Sereno | 22 | 13 | 56 | 1017 | 10 | O 7.4 | |
| Ieri h: 23:00 | Sereno | 23 | 12 | 49 | 1017 | 10 | O 7.4 | |
| Ieri h: 22:30 | Sereno | 24 | 11 | 43 | 1017 | 10 | O 7.4 | |
| Ieri h: 22:00 | Sereno | 25 | 10 | 38 | 1016 | 10 | N 0 | |
| Ieri h: 21:30 | Sereno | 26 | 11 | 39 | 1016 | 10 | N 5.5 | |
| Ieri h: 21:00 | Sereno | 27 | 11 | 36 | 1016 | 10 | N 3.7 | |



